Station: Tarcoola

  Atmospheric Gas Attenuation - ITU Rec 676-11   --------------- db/100km ---------------
Date Time Temp RH % AH g/m3 Dew Point Wind Direction Speed kph Gust kph Barometer mB Rainfall Since 9am 24GHz 47GHz 76GHz 122GHz 134GHz 241GHz
03 09:10 19.4 47 7.84 7.8 7 11 1021.5 0 17.7 23.5 34.7 90.7 83.0 285.2
03 09:00 19.7 46 7.81 7.8 15 24 1021.5 0 17.6 23.4 34.4 90.1 82.4 282.9
03 08:50 19.8 49 8.37 8.8 19 22 1022 0 18.8 24.2 36.4 95.4 89.0 306.3
03 08:40 19.1 50 8.2 8.4 20 24 1021.3 0 18.5 24.1 36.1 94.5 87.7 301.5
03 08:30 19 49 7.98 8.1 15 24 1019.6 0 18.0 23.7 35.3 92.3 85.0 292.1
03 08:20 19.2 49 8.08 8.2 13 15 1019.6 0 18.2 23.8 35.5 93.1 86.0 295.6
03 08:10 19.4 49 8.17 8.4 20 24 1019.1 0 18.4 23.9 35.8 93.7 86.8 298.6
03 08:00 19 49 7.98 8.1 22 33 1018.2 0 18.0 23.7 35.2 92.2 84.9 291.8
03 07:50 19.2 48 7.91 7.9 19 22 1018.2 0 17.9 23.5 34.9 91.3 83.8 288.1
03 07:40 19 50 8.15 8.4 17 20 1018.3 0 18.4 23.9 35.8 93.9 87.0 299.0
03 07:30 18.5 51 8.07 8.2 20 32 1017.7 0 18.2 23.9 35.7 93.6 86.5 297.3
03 07:20 18.2 52 8.08 8.2 20 22 1017.6 0 18.3 24.0 35.9 94.0 86.9 298.8
03 07:10 18.3 51 7.97 8 17 22 1017.6 0 18.0 23.8 35.4 92.8 85.5 293.8
03 07:00 18.2 50 7.77 7.6 20 30 1017.3 0 17.6 23.5 34.7 91.0 83.1 285.5
03 06:50 18.4 49 7.71 7.5 15 17 1017.4 0 17.5 23.4 34.4 90.1 82.2 282.3
03 06:40 18.2 49 7.62 7.3 15 19 1017.1 0 17.3 23.3 34.2 89.5 81.3 279.1
03 06:30 18.3 49 7.66 7.4 24 32 1016.9 0 17.4 23.3 34.3 89.7 81.7 280.4
03 06:20 18.4 47 7.39 6.9 22 26 1017.1 0 16.8 22.9 33.3 87.0 78.4 268.8
03 06:10 18.5 46 7.28 6.7 20 24 1016.9 0 16.6 22.7 32.8 85.8 76.9 263.9
03 06:00 18.6 46 7.32 6.8 19 28 1016.6 0 16.7 22.8 32.9 86.1 77.3 265.1
03 05:50 18.7 43 6.88 5.9 19 22 1016.3 0 15.7 22.1 31.3 81.8 72.0 246.6
03 05:40 18.9 41 6.64 5.4 28 32 1016.1 0 15.2 21.7 30.4 79.3 69.1 236.3
03 05:30 19 40 6.52 5.1 19 28 1016.4 0 15.0 21.5 29.9 78.1 67.6 231.2
03 05:20 19 38 6.19 4.4 20 24 1016.4 0 14.3 21.1 28.8 75.1 63.9 218.1
03 05:00 19.2 37 6.1 4.2 15 22 1016.5 0 14.1 20.9 28.4 74.1 62.7 214.0
03 04:50 19.2 38 6.27 4.6 17 20 1016.2 0 14.4 21.1 29.0 75.6 64.6 220.7
03 04:40 19.2 40 6.6 5.3 15 20 1016.2 0 15.1 21.6 30.1 78.7 68.4 233.8
03 04:30 19.1 42 6.88 5.9 15 24 1015.8 0 15.7 22.0 31.1 81.3 71.6 245.3
03 04:20 18.7 45 7.2 6.5 15 17 1015.6 0 16.4 22.5 32.4 84.7 75.7 259.6
03 04:10 18.2 47 7.3 6.7 7 9 1015.7 0 16.6 22.8 33.0 86.2 77.4 265.4
03 04:00 18.7 47 7.52 7.2 13 20 1015.8 0 17.1 23.0 33.6 87.8 79.5 272.9
03 03:50 18.6 47 7.48 7.1 15 17 1015.4 0 17.0 23.0 33.4 87.5 79.1 271.5
03 03:40 18.7 46 7.36 6.9 13 15 1015.6 0 16.7 22.8 33.0 86.3 77.6 266.2
03 03:30 18.7 46 7.36 6.9 13 17 1015.9 0 16.7 22.8 33.0 86.3 77.6 266.3
03 03:20 18.8 46 7.41 6.9 11 13 1015.7 0 16.8 22.8 33.1 86.7 78.1 268.0
03 03:10 18.9 45 7.29 6.7 15 17 1015.9 0 16.6 22.6 32.7 85.4 76.6 262.7
03 03:00 18.9 45 7.29 6.7 13 17 1016 0 16.6 22.6 32.7 85.4 76.6 262.8
03 02:50 19 45 7.33 6.8 15 19 1015.9 0 16.7 22.7 32.8 85.7 77.0 264.1
03 02:40 19.1 45 7.38 6.9 20 24 1016 0 16.8 22.7 32.9 86.1 77.5 265.8
03 02:30 19.2 45 7.42 7 19 24 1015.9 0 16.8 22.7 33.0 86.3 77.9 267.1
03 02:20 19.3 45 7.46 7.1 17 22 1016.1 0 16.9 22.8 33.1 86.6 78.2 268.5
03 02:10 19.5 44 7.38 6.9 19 24 1016.1 0 16.7 22.6 32.7 85.7 77.1 264.6
03 02:00 19.6 44 7.43 7 20 28 1016.1 0 16.8 22.7 32.9 86.0 77.6 266.3
03 01:50 19.7 44 7.47 7.1 17 20 1016.3 0 16.9 22.7 33.0 86.3 78.0 267.6
03 01:40 19.6 45 7.6 7.4 15 19 1016.3 0 17.2 22.9 33.5 87.7 79.6 273.3
03 01:30 19.5 45 7.55 7.3 17 22 1016.5 0 17.1 22.9 33.4 87.3 79.1 271.6
03 01:20 19.5 45 7.55 7.3 20 24 1016.6 0 17.1 22.9 33.4 87.3 79.1 271.7
03 01:10 19.6 45 7.6 7.4 19 22 1016.7 0 17.2 22.9 33.5 87.7 79.6 273.4
03 01:00 19.6 45 7.6 7.4 19 26 1016.8 0 17.2 22.9 33.5 87.7 79.6 273.4
03 00:50 19.7 45 7.64 7.4 17 20 1017 0 17.3 23.0 33.6 88.0 80.0 274.8
03 00:40 19.6 45 7.6 7.4 20 26 1017 0 17.2 22.9 33.5 87.7 79.7 273.5
03 00:30 19.7 45 7.64 7.4 19 24 1017.2 0 17.3 23.0 33.6 88.0 80.0 274.9
03 00:20 19.8 45 7.69 7.5 15 19 1017.2 0 17.4 23.0 33.8 88.4 80.5 276.6
03 00:10 19.8 44 7.51 7.2 19 20 1017.3 0 17.0 22.8 33.1 86.7 78.4 269.2
03 00:00 19.9 44 7.56 7.3 20 30 1017.5 0 17.1 22.8 33.3 87.1 78.9 270.9
02 23:50 20 44 7.6 7.4 22 28 1017.7 0 17.2 22.9 33.4 87.4 79.3 272.3
02 23:40 20.2 43 7.52 7.2 20 26 1017.9 0 17.0 22.7 33.0 86.4 78.2 268.4
02 23:30 20.3 42 7.39 7 19 26 1017.9 0 16.7 22.5 32.5 85.1 76.6 262.8
02 23:20 20.5 42 7.47 7.2 20 24 1018.1 0 16.9 22.6 32.7 85.6 77.3 265.4
02 23:10 20.5 42 7.47 7.2 20 24 1017.9 0 16.9 22.6 32.7 85.6 77.3 265.4
02 23:00 20.7 42 7.56 7.3 24 33 1017.8 0 17.1 22.6 33.0 86.2 78.2 268.4
02 22:50 20.8 43 7.79 7.8 22 30 1017.9 0 17.6 22.9 33.7 88.3 80.7 277.5
02 22:40 20.9 43 7.83 7.9 26 30 1017.7 0 17.6 23.0 33.8 88.6 81.1 278.7
02 22:30 21.1 43 7.92 8 26 35 1017.6 0 17.8 23.0 34.1 89.2 81.9 281.7
02 22:20 21.2 43 7.97 8.1 22 26 1017.6 0 17.9 23.1 34.2 89.6 82.4 283.4
02 22:10 21.4 43 8.06 8.3 26 30 1017.6 0 18.1 23.2 34.4 90.2 83.3 286.4
02 22:00 21.9 42 8.1 8.4 28 37 1017.6 0 18.2 23.1 34.4 90.0 83.2 286.3
02 21:50 22.8 39 7.92 8.1 22 28 1017.5 0 17.7 22.6 33.4 87.4 80.2 275.8
02 21:40 23.3 37 7.74 7.8 24 26 1017.3 0 17.3 22.2 32.5 85.1 77.7 267.0
02 21:30 23.5 37 7.82 8 28 35 1017.3 0 17.5 22.3 32.7 85.7 78.4 269.5
02 21:20 23.9 35 7.57 7.5 32 39 1017 0 17.0 21.9 31.7 83.0 75.2 258.3
02 21:10 24.9 30 6.87 6.1 20 26 1016.8 0 15.5 20.7 29.0 75.8 66.7 228.5
02 21:00 25.4 25 5.89 4 22 30 1016.5 0 13.4 19.3 25.7 67.0 56.0 191.0
02 20:50 25.6 24 5.71 3.5 24 32 1016.4 0 13.0 19.0 25.1 65.4 54.0 184.1
02 20:40 25.7 23 5.51 3 24 28 1016 0 12.6 18.7 24.5 63.6 51.9 176.7
02 20:30 26 21 5.11 2 22 32 1016 0 11.8 18.2 23.2 60.2 47.7 162.1
02 20:20 26.2 20 4.92 1.5 22 28 1015.9 0 11.4 17.9 22.6 58.5 45.8 155.1
02 20:10 26.4 19 4.73 0.9 22 28 1015.8 0 11.0 17.7 22.0 56.9 43.8 148.2
02 20:00 26.8 20 5.09 2 26 37 1015.8 0 11.7 18.0 22.9 59.4 47.1 159.8
02 19:50 27 20 5.15 2.1 30 33 1015.7 0 11.8 18.0 23.0 59.8 47.6 161.5
02 19:40 27.5 17 4.5 0.3 24 30 1015.6 0 10.5 17.2 21.0 54.4 41.0 138.6
02 19:30 27.8 14 3.77 -2.1 26 37 1015.6 0 9.0 16.3 18.9 48.7 34.1 114.2
02 19:20 28.2 13 3.57 -2.8 28 33 1015.6 0 8.6 16.0 18.3 47.0 32.1 107.3
02 19:10 29.1 13 3.75 -2.1 32 35 1015.4 0 8.9 16.0 18.6 47.8 33.4 111.8
02 19:00 29 14 4.02 -1.2 28 39 1015.1 0 9.5 16.4 19.3 49.8 35.9 120.6
02 18:50 29.8 13 3.9 -1.5 24 30 1015 0 9.2 16.1 18.8 48.5 34.5 115.7
02 18:40 30.2 12 3.68 -2.3 26 32 1014.9 0 8.7 15.8 18.1 46.7 32.4 108.2
02 18:30 31.1 13 4.18 -0.5 28 37 1014.7 0 9.7 16.2 19.3 49.8 36.4 122.7
02 18:20 31.6 13 4.3 -0.1 24 28 1014.6 0 10.0 16.2 19.5 50.3 37.3 125.7
02 18:10 31.9 12 4.03 -1 20 32 1014.6 0 9.4 15.9 18.7 48.2 34.8 116.9
02 18:00 31.7 11 3.66 -2.3 26 35 1014.4 0 8.7 15.5 17.7 45.7 31.6 105.7
02 17:50 32.4 13 4.48 0.5 20 26 1014.4 0 10.3 16.3 19.8 51.1 38.5 130.2
02 17:40 31.9 14 4.7 1.1 26 30 1014.3 0 10.8 16.6 20.5 53.0 40.7 137.9
02 17:30 32.1 16 5.43 3.1 24 35 1014.1 0 12.3 17.4 22.4 58.3 47.3 161.1
02 17:20 31.9 16 5.37 3 28 33 1014.1 0 12.1 17.4 22.3 58.0 46.8 159.5
02 17:10 32.3 16 5.49 3.3 32 37 1014.2 0 12.4 17.4 22.6 58.6 47.7 162.7
02 17:00 32.5 17 5.9 4.3 30 44 1014.2 0 13.2 17.9 23.7 61.6 51.4 175.7
02 16:50 32.7 18 6.31 5.3 28 35 1014.4 0 14.0 18.3 24.8 64.6 55.2 188.9
02 16:40 32.8 20 7.05 6.9 22 24 1014.5 0 15.5 19.2 26.9 70.3 62.2 213.7
02 16:30 32.6 20 6.97 6.7 24 37 1014.3 0 15.4 19.1 26.7 69.8 61.6 211.5

Last Refresh: 03-Dec-2021 09:18:20

Bureau of Meteorology